Latest Weather Observations for Broome

IDW60801

Issued at 10:02 am WST Friday 29 May 2015 (issued every 30 minutes, with the page automatically refreshed every 10 minutes)

About weather observations | Map of weather stations | Latest weather observations for WA | Other Formats
Station Details ID: 003003 Name: BROOME AIRPORT Lat: -17.95 Lon: 122.24 Height: 7.42 m
Data from the previous 72 hours. | See also: Recent months at Broome
Date/Time
WST
Temp
°C
App
Temp
°C
Dew
Point
Rel
Hum
%
Delta-T
°C
Wind Press
QNH
hPa
Press
MSL
hPa
Rain
since 9 am
mm
Dir
 
Spd
km/h
Gust
km/h
Spd
kts
Gust
kts
29/10:00am 27.5 25.7 13.4 41 8.3 SE 15 19 8 10 1015.5 - 0.0
29/09:30am 26.4 23.9 13.5 45 7.6 ESE 19 24 10 13 1015.8 - 0.0
29/09:00am 24.9 22.0 12.8 47 7.0 ESE 20 26 11 14 1016.0 1015.9 0.0
29/08:30am 24.0 21.9 13.5 52 6.1 ESE 17 20 9 11 1016.0 - 0.0
29/08:00am 23.4 22.2 14.0 55 5.5 ESE 13 17 7 9 1015.6 - 0.0
29/07:30am 22.7 22.3 15.3 63 4.4 E 11 13 6 7 1015.3 - 0.0
29/07:00am 23.4 22.2 14.0 55 5.5 SE 13 17 7 9 1014.9 - 0.0
29/06:30am 23.3 22.2 15.3 60 4.8 SE 15 20 8 11 1014.4 - 0.0
29/06:00am 23.3 24.1 16.4 65 4.2 SE 7 15 4 8 1013.9 1013.8 0.0
29/05:30am 22.9 24.4 18.8 77 2.6 SE 9 13 5 7 1013.8 - 0.0
29/05:00am 20.9 24.1 18.8 88 1.3 CALM 0 0 0 0 1013.5 - 0.0
29/04:30am 19.9 23.0 18.6 92 0.8 CALM 0 0 0 0 1013.4 - 0.0
29/04:00am 20.0 23.1 18.7 92 0.8 CALM 0 0 0 0 1013.4 - 0.0
29/03:30am 20.0 23.1 18.7 92 0.8 CALM 0 0 0 0 1013.4 - 0.0
29/03:00am 19.2 22.1 18.1 93 0.7 CALM 0 0 0 0 1013.5 1013.4 0.0
29/02:30am 19.2 22.1 18.1 93 0.7 CALM 0 0 0 0 1013.5 - 0.0
29/02:00am 19.6 22.5 18.3 92 0.8 CALM 0 0 0 0 1013.7 - 0.0
29/01:30am 19.4 22.1 17.8 90 1.0 CALM 0 0 0 0 1013.9 - 0.0
29/01:00am 19.8 22.6 18.0 89 1.1 CALM 0 0 0 0 1014.0 - 0.0
29/12:30am 20.1 22.9 18.0 88 1.3 CALM 0 0 0 0 1014.2 - 0.0
29/12:00am 19.8 21.2 17.3 85 1.5 N 6 7 3 4 1014.5 1014.4 0.0
 
Date/Time
WST
Temp
°C
App
Temp
°C
Dew
Point
Rel
Hum
%
Delta-T
°C
Wind Press
QNH
hPa
Press
MSL
hPa
Rain
since 9 am
mm
Dir
 
Spd
km/h
Gust
km/h
Spd
kts
Gust
kts
28/11:30pm 20.0 22.6 17.6 86 1.5 CALM 0 0 0 0 1014.7 - 0.0
28/11:00pm 20.4 22.9 17.3 82 1.9 CALM 0 0 0 0 1014.9 - 0.0
28/10:30pm 21.0 23.8 17.9 82 1.9 CALM 0 0 0 0 1015.1 - 0.0
28/10:00pm 20.8 23.1 16.8 78 2.4 CALM 0 6 0 3 1015.1 - 0.0
28/09:30pm 21.5 24.2 17.8 79 2.3 CALM 0 7 0 4 1015.0 - 0.0
28/09:00pm 22.8 25.4 18.5 77 2.7 WSW 2 9 1 5 1014.9 1014.8 0.0
28/08:30pm 22.5 25.5 18.5 78 2.5 CALM 0 0 0 0 1014.7 - 0.0
28/08:00pm 25.1 27.1 18.8 68 4.0 WSW 6 11 3 6 1014.4 - 0.0
28/07:30pm 25.7 27.9 19.1 67 4.2 SW 6 7 3 4 1014.0 - 0.0
28/07:00pm 26.0 28.1 19.3 66 4.3 SW 7 11 4 6 1013.6 - 0.0
28/06:30pm 26.5 28.0 18.8 62 4.9 WSW 9 13 5 7 1013.2 - 0.0
28/06:00pm 27.4 27.9 17.4 54 6.3 SW 11 15 6 8 1012.9 1012.8 0.0
28/05:30pm 30.3 28.9 11.0 30 11.1 SW 9 13 5 7 1012.7 - 0.0
28/05:00pm 31.4 30.0 11.0 28 11.8 SW 9 13 5 7 1012.4 - 0.0
28/04:30pm 32.3 30.2 9.9 25 12.8 SSW 11 15 6 8 1012.2 - 0.0
28/04:00pm 32.3 30.1 9.3 24 13.0 S 11 15 6 8 1011.9 - 0.0
28/03:30pm 32.7 30.1 9.2 23 13.3 S 13 17 7 9 1011.8 - 0.0
28/03:00pm 32.7 30.4 8.9 23 13.4 S 11 15 6 8 1011.7 1011.6 0.0
28/02:30pm 32.7 30.1 9.5 24 13.2 SSE 13 17 7 9 1011.7 - 0.0
28/02:00pm 32.5 30.0 9.7 24 13.0 S 13 17 7 9 1011.8 - 0.0
28/01:30pm 32.2 29.8 10.2 25 12.6 SSE 13 17 7 9 1011.9 - 0.0
28/01:00pm 32.2 29.9 10.5 26 12.5 SSE 13 17 7 9 1012.2 - 0.0
28/12:30pm 31.1 28.4 10.5 28 11.8 SSE 15 19 8 10 1012.7 - 0.0
28/12:00pm 31.0 27.9 10.3 27 11.8 SE 17 24 9 13 1013.1 1013.0 0.0
28/11:30am 30.2 27.2 10.6 29 11.2 ESE 17 22 9 12 1013.6 - 0.0
28/11:00am 29.5 26.4 11.5 33 10.4 ESE 19 24 10 13 1014.2 - 0.0
28/10:30am 28.7 25.8 12.2 36 9.6 ESE 19 26 10 14 1014.6 - 0.0
28/10:00am 27.9 24.6 11.5 36 9.4 E 20 28 11 15 1014.9 - 0.0
28/09:30am 25.9 23.5 12.8 44 7.6 E 17 22 9 12 1015.3 - 0.0
28/09:00am 25.2 21.8 11.4 42 7.8 E 20 26 11 14 1015.4 1015.3 0.0
28/08:30am 24.2 21.0 11.4 44 7.2 E 19 26 10 14 1015.4 - 0.0
28/08:00am 23.1 20.1 11.9 49 6.3 E 19 26 10 14 1015.5 - 0.0
28/07:30am 21.8 20.5 12.4 55 5.3 E 11 15 6 8 1015.4 - 0.0
28/07:00am 21.1 19.5 12.8 59 4.7 E 13 19 7 10 1015.1 - 0.0
28/06:30am 21.2 19.8 13.4 61 4.5 E 13 19 7 10 1014.7 - 0.0
28/06:00am 21.8 19.7 13.5 59 4.8 ESE 17 24 9 13 1014.5 1014.4 0.0
28/05:30am 22.2 19.9 13.1 56 5.2 SE 17 28 9 15 1014.3 - 0.0
28/05:00am 22.3 19.9 13.9 59 4.9 SE 19 28 10 15 1013.9 - 0.0
28/04:30am 22.4 20.1 14.0 59 4.9 SE 19 26 10 14 1013.6 - 0.0
28/04:00am 22.5 19.9 13.7 57 5.1 SSE 20 28 11 15 1013.4 - 0.0
28/03:30am 22.6 20.2 13.8 57 5.1 SSE 19 26 10 14 1013.5 - 0.0
28/03:00am 22.8 20.0 13.3 55 5.5 SSE 20 28 11 15 1013.5 1013.4 0.0
28/02:30am 23.0 20.9 13.5 55 5.5 SSE 17 22 9 12 1013.6 - 0.0
28/02:00am 23.1 21.5 14.0 56 5.3 S 15 24 8 13 1013.7 - 0.0
28/01:30am 23.0 23.8 18.2 74 3.0 S 11 19 6 10 1014.1 - 0.0
28/01:00am 19.5 22.5 18.4 93 0.7 CALM 0 0 0 0 1014.2 - 0.0
28/12:30am 19.2 22.1 18.1 93 0.7 CALM 0 4 0 2 1014.1 - 0.0
28/12:00am 19.9 23.1 18.8 93 0.7 CALM 0 0 0 0 1014.1 1014.0 0.0
 
Date/Time
WST
Temp
°C
App
Temp
°C
Dew
Point
Rel
Hum
%
Delta-T
°C
Wind Press
QNH
hPa
Press
MSL
hPa
Rain
since 9 am
mm
Dir
 
Spd
km/h
Gust
km/h
Spd
kts
Gust
kts
27/11:30pm 20.5 24.0 19.6 95 0.6 CALM 0 2 0 1 1014.2 - 0.0
27/11:00pm 19.7 21.4 18.4 92 0.8 NNE 7 9 4 5 1014.2 - 0.0
27/10:30pm 19.7 22.3 17.6 88 1.3 CALM 0 0 0 0 1014.2 - 0.0
27/10:00pm 19.7 22.3 17.6 88 1.3 CALM 0 0 0 0 1014.2 - 0.0
27/09:30pm 20.4 23.3 18.1 87 1.4 CALM 0 0 0 0 1014.3 - 0.0
27/09:00pm 20.9 23.9 18.5 86 1.5 CALM 0 0 0 0 1014.2 1014.1 0.0
27/08:30pm 21.6 24.8 18.9 84 1.7 CALM 0 0 0 0 1014.1 - 0.0
27/08:00pm 22.9 26.6 19.9 83 1.9 CALM 0 0 0 0 1014.0 - 0.0
27/07:30pm 24.9 27.9 20.9 78 2.6 W 6 7 3 4 1013.8 - 0.0
27/07:00pm 25.8 28.0 20.3 71 3.6 W 9 13 5 7 1013.6 - 0.0
27/06:30pm 25.9 27.4 18.9 65 4.5 W 9 13 5 7 1013.3 - 0.0
27/06:00pm 26.4 27.4 17.7 58 5.5 W 9 13 5 7 1012.8 1012.7 0.0
27/05:30pm 26.9 27.5 17.7 57 5.8 W 11 15 6 8 1012.4 - 0.0
27/05:00pm 28.0 27.0 15.6 46 7.6 W 15 20 8 11 1011.9 - 0.0
27/04:30pm 29.3 27.4 13.1 37 9.6 W 15 22 8 12 1011.7 - 0.0
27/04:00pm 29.5 27.3 13.4 37 9.6 W 17 20 9 11 1011.5 - 0.0
27/03:30pm 30.5 28.2 11.8 31 10.9 W 15 19 8 10 1011.4 - 0.0
27/03:00pm 31.2 29.3 11.9 30 11.3 W 13 15 7 8 1011.3 1011.2 0.0
27/02:30pm 31.0 29.6 13.3 34 10.6 W 13 17 7 9 1011.3 - 0.0
27/02:00pm 29.9 28.3 14.0 37 9.6 W 15 17 8 9 1011.6 - 0.0
27/01:30pm 29.6 28.0 14.0 38 9.4 W 15 19 8 10 1011.8 - 0.0
27/01:00pm 30.5 29.1 14.4 37 9.8 W 15 19 8 10 1012.1 - 0.0
27/12:30pm 31.1 29.4 13.7 34 10.5 W 15 19 8 10 1012.7 - 0.0
27/12:00pm 31.2 30.5 13.1 33 10.8 W 9 13 5 7 1013.3 1013.2 0.0
27/11:30am 30.8 29.8 12.3 32 10.9 W 9 13 5 7 1013.7 - 0.0
27/11:00am 30.6 29.6 11.0 29 11.3 E 7 11 4 6 1014.2 - 0.0
27/10:30am 29.7 28.2 9.2 28 11.4 E 7 9 4 5 1014.7 - 0.0
27/10:00am 27.9 26.8 10.0 32 10.0 SE 6 9 3 5 1015.1 - 0.0
27/09:30am 25.8 24.1 8.3 33 9.4 SE 7 11 4 6 1015.5 - 0.0
27/09:00am 25.8 24.6 9.6 36 8.9 E 6 13 3 7 1015.8 1015.7 0.0
27/08:30am 25.1 25.0 9.3 36 8.6 CALM 0 2 0 1 1015.6 - 0.0
27/08:00am 22.8 23.6 15.8 64 4.2 NNE 6 9 3 5 1015.7 - 0.0
27/07:30am 20.8 23.1 16.7 77 2.5 CALM 0 0 0 0 1015.5 - 0.0
27/07:00am 18.3 20.4 16.3 88 1.2 CALM 0 0 0 0 1015.4 - 0.0
27/06:30am 16.6 18.4 15.4 93 0.7 CALM 0 0 0 0 1015.0 - 0.0
27/06:00am 16.5 18.2 15.3 93 0.7 CALM 0 0 0 0 1014.6 1014.5 0.0
27/05:30am 17.4 19.5 16.2 93 0.7 CALM 0 0 0 0 1014.4 - 0.0
27/05:00am 17.3 19.3 16.1 93 0.7 CALM 0 0 0 0 1014.3 - 0.0
27/04:30am 17.6 19.8 16.4 93 0.7 CALM 0 0 0 0 1014.2 - 0.0
27/04:00am 18.2 20.6 16.9 92 0.8 CALM 0 0 0 0 1014.3 - 0.0
27/03:30am 18.2 20.6 16.9 92 0.8 CALM 0 0 0 0 1014.4 - 0.0
27/03:00am 19.2 21.9 17.7 91 0.9 CALM 0 0 0 0 1014.5 1014.4 0.0
27/02:30am 19.0 21.7 17.7 92 0.8 CALM 0 0 0 0 1014.6 - 0.0
27/02:00am 18.9 21.5 17.6 92 0.8 CALM 0 0 0 0 1014.8 - 0.0
27/01:30am 19.0 21.8 17.9 93 0.7 CALM 0 0 0 0 1015.0 - 0.0
27/01:00am 19.5 22.4 18.2 92 0.8 CALM 0 0 0 0 1015.4 - 0.0
27/12:30am 19.7 22.7 18.4 92 0.8 CALM 0 0 0 0 1015.9 - 0.0
27/12:00am 20.3 23.4 18.7 90 1.0 CALM 0 0 0 0 1016.2 1016.1 0.0
 
Date/Time
WST
Temp
°C
App
Temp
°C
Dew
Point
Rel
Hum
%
Delta-T
°C
Wind Press
QNH
hPa
Press
MSL
hPa
Rain
since 9 am
mm
Dir
 
Spd
km/h
Gust
km/h
Spd
kts
Gust
kts
26/11:30pm 20.8 24.2 19.4 92 0.9 CALM 0 0 0 0 1016.4 - 0.0
26/11:00pm 23.3 25.5 19.5 79 2.4 SE 7 11 4 6 1016.7 - 0.0
26/10:30pm 22.9 25.1 19.6 81 2.1 SE 7 9 4 5 1016.9 - 0.0
26/10:00pm 23.2 25.5 19.8 81 2.2 SE 7 11 4 6 1017.2 - 0.0
26/09:30pm 23.8 26.2 20.9 84 1.9 SSE 9 13 5 7 1017.1 - 0.0
26/09:00pm 23.9 26.9 21.3 85 1.7 SSE 7 9 4 5 1017.0 1016.9 0.0
26/08:30pm 24.3 27.5 21.3 83 2.0 SSW 6 7 3 4 1016.9 - 0.0
26/08:00pm 24.6 28.1 22.2 86 1.6 SSW 7 9 4 5 1016.7 - 0.0
26/07:30pm 24.8 28.4 22.4 86 1.6 SW 7 9 4 5 1016.5 - 0.0
26/07:00pm 25.0 28.9 22.5 86 1.7 W 6 7 3 4 1016.0 - 0.0
26/06:30pm 25.1 28.6 22.1 83 2.0 W 7 9 4 5 1015.7 - 0.0
26/06:00pm 25.0 28.2 21.7 82 2.2 WNW 7 9 4 5 1015.4 1015.3 0.0
26/05:30pm 25.9 29.1 22.3 80 2.4 W 9 13 5 7 1015.1 - 0.0
26/05:00pm 26.6 29.0 22.3 77 2.9 W 13 17 7 9 1014.9 - 0.0
26/04:30pm 27.4 29.4 21.6 70 3.9 W 13 19 7 10 1014.5 - 0.0
26/04:00pm 28.0 28.8 20.7 64 4.8 W 17 22 9 12 1014.3 - 0.0
26/03:30pm 28.3 28.5 20.2 61 5.3 W 19 26 10 14 1014.2 - 0.0
26/03:00pm 28.4 28.8 19.8 59 5.6 WNW 17 24 9 13 1014.2 1014.1 0.0
26/02:30pm 29.0 28.3 18.6 53 6.7 W 20 28 11 15 1014.2 - 0.0
26/02:00pm 29.3 28.3 17.6 49 7.4 NW 19 28 10 15 1014.2 - 0.0
26/01:30pm 29.3 27.8 16.7 46 7.9 WNW 20 28 11 15 1014.4 - 0.0
26/01:00pm 30.8 28.6 15.0 38 9.7 NW 20 28 11 15 1014.4 - 0.0
26/12:30pm 29.9 27.5 13.9 37 9.6 NW 19 24 10 13 1014.9 - 0.0
26/12:00pm 30.8 27.0 9.2 26 12.1 NW 19 26 10 14 1015.5 1015.4 0.0
26/11:30am 31.1 27.1 3.1 17 14.2 WNW 13 19 7 10 1015.9 - 0.0
26/11:00am 31.6 28.6 4.1 17 14.2 NE 9 15 5 8 1016.2 - 0.0
26/10:30am 29.3 26.3 4.2 20 12.8 ENE 9 13 5 7 1016.6 - 0.0

Other Formats:

Comma delimited format used in spreadsheet applications
http://www.bom.gov.au/fwo/IDW60801/IDW60801.94203.axf

JavaScript Object Notation format (JSON) in row-major order
http://www.bom.gov.au/fwo/IDW60801/IDW60801.94203.json